KLMT/LMT METAR and TAF weather

Enter ICAO airport designator
Station Type Date Time Source
KLMT METAR 2019/04/18 10:53 UTC NOAA

KLMT 181053Z AUTO 00000KT 10SM CLR 02/01 A3032 RMK AO2 SLP253 T00220011


Station Type Date Time Source
KLMT Decoded METAR 2019/04/18 10:53 UTC NOAA

KLAMATH FALLS INTERNATIONAL AIRPORT, OR, United States (KLMT) 42-09N 121-43W 1246M
Apr 18, 2019 - 06:53 AM EDT / 2019.04.18 1053 UTC
Wind: Calm:0
Visibility: 10 mile(s):0
Sky conditions: clear
Temperature: 36.0 F (2.2 C)
Dew Point: 34.0 F (1.1 C)
Relative Humidity: 92%
Pressure (altimeter): 30.32 in. Hg (1026 hPa)
ob: KLMT 181053Z AUTO 00000KT 10SM CLR 02/01 A3032 RMK AO2 SLP253 T00220011
cycle: 11

Station Type Date Time Source
KLMT TAF 2019/04/18 06:24 UTC NOAA

TAF KLMT 180522Z 1806/1906 VRB03KT P6SM SCT250

Example: see airport list